Aviation Digital Data Service (ADDS)

Output produced by METARs form (0300 UTC 28 February 2021)
found at http://aviationweather.gov/metar/data/
 
KSNS 280253Z AUTO 27014KT 10SM CLR 12/06 A3011 RMK AO2 SLP206 T01170056 53012
KSNS 272330Z 2800/2824 29013KT P6SM SKC 
     FM280300 VRB05KT P6SM SKC WS020/34025KT 
     FM280800 VRB03KT P6SM SKC 
     FM282100 29008KT P6SM SKC
       
KMRY 280254Z AUTO VRB05KT 9SM CLR 12/07 A3014 RMK AO2 SLP218 T01220067 53009
KMRY 272330Z 2800/2824 30011KT P6SM SKC 
     FM280200 29007KT P6SM FEW014 
     FM280500 VRB05KT P6SM SCT012 
     TEMPO 2806/2810 BKN009 
     FM281200 14007KT P6SM FEW010 
     FM282000 29006KT P6SM SKC
       
KSJC 280253Z 34010KT 10SM FEW080 SCT120 12/04 A3013 RMK AO2 SLP201 T01220039 53009
KSJC 272330Z 2800/2824 31016KT P6SM SKC 
     FM280200 31011KT P6SM SKC 
     FM280400 29007KT P6SM SKC WS020/35025KT 
     FM280600 VRB05KT P6SM SKC WS020/35025KT 
     FM281500 33010KT P6SM SKC 
     FM282000 31008KT P6SM SKC
       
KRHV 280147Z 33011G18KT 10SM SKC 13/04 A3012
KSFO 280256Z 29017KT 10SM CLR 12/06 A3014 RMK AO2 SLP205 T01170056 53001 $
KSFO 272340Z 2800/0106 30017G24KT P6SM SKC 
     FM280300 30012KT P6SM SKC 
     FM280600 30008KT P6SM SKC WS015/01030KT 
     FM280900 VRB04KT P6SM SKC WS015/01025KT 
     FM281500 VRB04KT P6SM SKC 
     FM282200 36006KT P6SM SKC 
     FM010400 VRB04KT P6SM SKC
       
KLVK 280253Z 29003KT 10SM CLR 13/M01 A3012 RMK AO2 SLP198 T01281006 53006
KLVK 272330Z 2800/2824 34012KT P6SM SKC 
     FM280100 35009KT P6SM SKC 
     FM280300 VRB05KT P6SM SKC WS010/02030KT 
     FM281600 03009KT P6SM SKC
       
KMCE 280253Z AUTO 33012KT 10SM CLR 13/M04 A3005 RMK AO2 SLP175 T01331039 53007
KMCE 272320Z 2800/2824 32013G22KT P6SM FEW250 
     FM280500 32010KT P6SM FEW250 
     FM280900 VRB04KT P6SM SKC